sensor_id;sensor_type;location;lat;lon;timestamp;temperature;humidity
27540;DHT22;15906;52.046;4.724;2023-03-16T00:02:12;5.80;99.90
27540;DHT22;15906;52.046;4.724;2023-03-16T00:04:37;5.70;99.90
27540;DHT22;15906;52.046;4.724;2023-03-16T00:07:04;5.70;99.90
27540;DHT22;15906;52.046;4.724;2023-03-16T00:09:30;5.70;99.90
27540;DHT22;15906;52.046;4.724;2023-03-16T00:11:59;5.70;99.90
27540;DHT22;15906;52.046;4.724;2023-03-16T00:14:28;5.70;99.90
27540;DHT22;15906;52.046;4.724;2023-03-16T00:16:54;5.80;99.90
27540;DHT22;15906;52.046;4.724;2023-03-16T00:19:19;5.90;99.90
27540;DHT22;15906;52.046;4.724;2023-03-16T00:21:50;5.80;99.90
27540;DHT22;15906;52.046;4.724;2023-03-16T00:24:19;5.80;99.90
27540;DHT22;15906;52.046;4.724;2023-03-16T00:26:47;5.80;99.90
27540;DHT22;15906;52.046;4.724;2023-03-16T00:29:13;5.80;99.90
27540;DHT22;15906;52.046;4.724;2023-03-16T00:31:39;5.80;99.90
27540;DHT22;15906;52.046;4.724;2023-03-16T00:34:09;5.70;99.90
27540;DHT22;15906;52.046;4.724;2023-03-16T00:36:34;5.80;99.90
27540;DHT22;15906;52.046;4.724;2023-03-16T00:39:03;5.80;99.90
27540;DHT22;15906;52.046;4.724;2023-03-16T00:41:29;5.90;99.90
27540;DHT22;15906;52.046;4.724;2023-03-16T00:43:55;5.80;99.90
27540;DHT22;15906;52.046;4.724;2023-03-16T00:46:20;5.90;99.90
27540;DHT22;15906;52.046;4.724;2023-03-16T00:48:51;5.90;99.90
27540;DHT22;15906;52.046;4.724;2023-03-16T00:51:17;5.90;99.90
27540;DHT22;15906;52.046;4.724;2023-03-16T00:53:44;5.80;99.90
27540;DHT22;15906;52.046;4.724;2023-03-16T00:56:11;5.80;99.90
27540;DHT22;15906;52.046;4.724;2023-03-16T00:58:39;5.80;99.90
27540;DHT22;15906;52.046;4.724;2023-03-16T01:01:10;5.80;99.90
27540;DHT22;15906;52.046;4.724;2023-03-16T01:03:36;5.70;99.90
27540;DHT22;15906;52.046;4.724;2023-03-16T01:06:06;5.80;99.90
27540;DHT22;15906;52.046;4.724;2023-03-16T01:08:35;5.80;99.90
27540;DHT22;15906;52.046;4.724;2023-03-16T01:11:12;5.90;99.90
27540;DHT22;15906;52.046;4.724;2023-03-16T01:13:38;5.80;99.90
27540;DHT22;15906;52.046;4.724;2023-03-16T01:16:04;5.80;99.90
27540;DHT22;15906;52.046;4.724;2023-03-16T01:18:31;5.70;99.90
27540;DHT22;15906;52.046;4.724;2023-03-16T01:21:04;5.70;99.90
27540;DHT22;15906;52.046;4.724;2023-03-16T01:23:31;5.80;99.90
27540;DHT22;15906;52.046;4.724;2023-03-16T01:25:58;5.80;99.90
27540;DHT22;15906;52.046;4.724;2023-03-16T01:28:26;5.80;99.90
27540;DHT22;15906;52.046;4.724;2023-03-16T01:30:54;5.80;99.90
27540;DHT22;15906;52.046;4.724;2023-03-16T01:33:22;5.80;99.90
27540;DHT22;15906;52.046;4.724;2023-03-16T01:35:56;5.80;99.90
27540;DHT22;15906;52.046;4.724;2023-03-16T01:38:23;5.80;99.90
27540;DHT22;15906;52.046;4.724;2023-03-16T01:40:49;5.80;99.90
27540;DHT22;15906;52.046;4.724;2023-03-16T01:43:17;5.80;99.90
27540;DHT22;15906;52.046;4.724;2023-03-16T01:46:15;5.80;99.90
27540;DHT22;15906;52.046;4.724;2023-03-16T01:57:14;5.80;99.90
27540;DHT22;15906;52.046;4.724;2023-03-16T02:02:13;5.80;99.90
27540;DHT22;15906;52.046;4.724;2023-03-16T02:05:01;5.80;99.90
27540;DHT22;15906;52.046;4.724;2023-03-16T02:07:33;5.90;99.90
27540;DHT22;15906;52.046;4.724;2023-03-16T02:10:00;5.80;99.90
27540;DHT22;15906;52.046;4.724;2023-03-16T02:12:27;5.80;99.90
27540;DHT22;15906;52.046;4.724;2023-03-16T02:14:53;5.70;99.90
27540;DHT22;15906;52.046;4.724;2023-03-16T02:17:21;5.80;99.90
27540;DHT22;15906;52.046;4.724;2023-03-16T02:22:42;5.80;99.90
27540;DHT22;15906;52.046;4.724;2023-03-16T02:25:09;5.80;99.90
27540;DHT22;15906;52.046;4.724;2023-03-16T02:30:17;5.80;99.90
27540;DHT22;15906;52.046;4.724;2023-03-16T02:32:44;5.90;99.90
27540;DHT22;15906;52.046;4.724;2023-03-16T02:35:12;5.80;99.90
27540;DHT22;15906;52.046;4.724;2023-03-16T02:37:38;5.80;99.90
27540;DHT22;15906;52.046;4.724;2023-03-16T02:40:25;5.90;99.90
27540;DHT22;15906;52.046;4.724;2023-03-16T02:43:06;5.90;99.90
27540;DHT22;15906;52.046;4.724;2023-03-16T02:45:38;5.90;99.90
27540;DHT22;15906;52.046;4.724;2023-03-16T02:48:10;5.90;99.90
27540;DHT22;15906;52.046;4.724;2023-03-16T02:50:44;5.90;99.90
27540;DHT22;15906;52.046;4.724;2023-03-16T02:53:12;5.90;99.90
27540;DHT22;15906;52.046;4.724;2023-03-16T02:55:38;6.00;99.90
27540;DHT22;15906;52.046;4.724;2023-03-16T02:58:03;6.00;99.90
27540;DHT22;15906;52.046;4.724;2023-03-16T03:00:29;6.00;99.90
27540;DHT22;15906;52.046;4.724;2023-03-16T03:02:54;6.00;99.90
27540;DHT22;15906;52.046;4.724;2023-03-16T03:05:20;6.00;99.90
27540;DHT22;15906;52.046;4.724;2023-03-16T03:07:46;6.10;99.90
27540;DHT22;15906;52.046;4.724;2023-03-16T03:10:11;6.00;99.90
27540;DHT22;15906;52.046;4.724;2023-03-16T03:12:37;6.00;99.90
27540;DHT22;15906;52.046;4.724;2023-03-16T03:15:03;6.10;99.90
27540;DHT22;15906;52.046;4.724;2023-03-16T03:17:29;6.00;99.90
27540;DHT22;15906;52.046;4.724;2023-03-16T03:19:59;6.00;99.90
27540;DHT22;15906;52.046;4.724;2023-03-16T03:22:26;6.00;99.90
27540;DHT22;15906;52.046;4.724;2023-03-16T03:24:52;6.00;99.90
27540;DHT22;15906;52.046;4.724;2023-03-16T03:27:19;6.00;99.90
27540;DHT22;15906;52.046;4.724;2023-03-16T03:29:46;6.00;99.90
27540;DHT22;15906;52.046;4.724;2023-03-16T03:32:12;6.00;99.90
27540;DHT22;15906;52.046;4.724;2023-03-16T03:34:38;6.00;99.90
27540;DHT22;15906;52.046;4.724;2023-03-16T03:37:04;6.00;99.90
27540;DHT22;15906;52.046;4.724;2023-03-16T03:39:29;6.00;99.90
27540;DHT22;15906;52.046;4.724;2023-03-16T03:41:55;5.90;99.90
27540;DHT22;15906;52.046;4.724;2023-03-16T03:44:21;6.00;99.90
27540;DHT22;15906;52.046;4.724;2023-03-16T03:46:48;6.00;99.90
27540;DHT22;15906;52.046;4.724;2023-03-16T03:49:14;6.00;99.90
27540;DHT22;15906;52.046;4.724;2023-03-16T03:51:39;6.00;99.90
27540;DHT22;15906;52.046;4.724;2023-03-16T03:54:06;6.10;99.90
27540;DHT22;15906;52.046;4.724;2023-03-16T03:56:32;6.00;99.90
27540;DHT22;15906;52.046;4.724;2023-03-16T03:58:58;6.10;99.90
27540;DHT22;15906;52.046;4.724;2023-03-16T04:01:23;6.10;99.90
27540;DHT22;15906;52.046;4.724;2023-03-16T04:03:49;6.10;99.90
27540;DHT22;15906;52.046;4.724;2023-03-16T04:06:15;6.10;99.90
27540;DHT22;15906;52.046;4.724;2023-03-16T04:08:41;6.10;99.90
27540;DHT22;15906;52.046;4.724;2023-03-16T04:11:06;6.10;99.90
27540;DHT22;15906;52.046;4.724;2023-03-16T04:13:32;6.10;99.90
27540;DHT22;15906;52.046;4.724;2023-03-16T04:15:59;6.10;99.90
27540;DHT22;15906;52.046;4.724;2023-03-16T04:18:27;6.10;99.90
27540;DHT22;15906;52.046;4.724;2023-03-16T04:20:53;6.10;99.90
27540;DHT22;15906;52.046;4.724;2023-03-16T04:23:19;6.10;99.90
27540;DHT22;15906;52.046;4.724;2023-03-16T04:25:45;6.10;99.90
27540;DHT22;15906;52.046;4.724;2023-03-16T04:28:11;6.10;99.90
27540;DHT22;15906;52.046;4.724;2023-03-16T04:30:37;6.20;99.90
27540;DHT22;15906;52.046;4.724;2023-03-16T04:33:02;6.10;99.90
27540;DHT22;15906;52.046;4.724;2023-03-16T04:35:28;6.10;99.90
27540;DHT22;15906;52.046;4.724;2023-03-16T04:37:54;6.10;99.90
27540;DHT22;15906;52.046;4.724;2023-03-16T04:40:20;6.20;99.90
27540;DHT22;15906;52.046;4.724;2023-03-16T04:42:46;6.10;99.90
27540;DHT22;15906;52.046;4.724;2023-03-16T04:45:13;6.10;99.90
27540;DHT22;15906;52.046;4.724;2023-03-16T04:47:39;6.10;99.90
27540;DHT22;15906;52.046;4.724;2023-03-16T04:50:06;6.10;99.90
27540;DHT22;15906;52.046;4.724;2023-03-16T04:52:32;6.00;99.90
27540;DHT22;15906;52.046;4.724;2023-03-16T04:54:58;6.10;99.90
27540;DHT22;15906;52.046;4.724;2023-03-16T04:57:23;6.00;99.90
27540;DHT22;15906;52.046;4.724;2023-03-16T04:59:49;6.00;99.90
27540;DHT22;15906;52.046;4.724;2023-03-16T05:02:15;6.00;99.90
27540;DHT22;15906;52.046;4.724;2023-03-16T05:04:42;6.00;99.90
27540;DHT22;15906;52.046;4.724;2023-03-16T05:07:07;6.00;99.90
27540;DHT22;15906;52.046;4.724;2023-03-16T05:09:33;6.00;99.90
27540;DHT22;15906;52.046;4.724;2023-03-16T05:11:59;5.90;99.90
27540;DHT22;15906;52.046;4.724;2023-03-16T05:14:25;5.90;99.90
27540;DHT22;15906;52.046;4.724;2023-03-16T05:16:50;5.90;99.90
27540;DHT22;15906;52.046;4.724;2023-03-16T05:19:16;5.90;99.90
27540;DHT22;15906;52.046;4.724;2023-03-16T05:21:42;5.90;99.90
27540;DHT22;15906;52.046;4.724;2023-03-16T05:24:07;5.90;99.90
27540;DHT22;15906;52.046;4.724;2023-03-16T05:26:33;5.80;99.90
27540;DHT22;15906;52.046;4.724;2023-03-16T05:28:59;5.80;99.90
27540;DHT22;15906;52.046;4.724;2023-03-16T05:31:25;5.80;99.90
27540;DHT22;15906;52.046;4.724;2023-03-16T05:33:52;5.70;99.90
27540;DHT22;15906;52.046;4.724;2023-03-16T05:36:18;5.80;99.90
27540;DHT22;15906;52.046;4.724;2023-03-16T05:38:44;5.80;99.90
27540;DHT22;15906;52.046;4.724;2023-03-16T05:41:10;5.80;99.90
27540;DHT22;15906;52.046;4.724;2023-03-16T05:43:36;5.80;99.90
27540;DHT22;15906;52.046;4.724;2023-03-16T05:46:01;5.80;99.90
27540;DHT22;15906;52.046;4.724;2023-03-16T05:48:28;5.70;99.90
27540;DHT22;15906;52.046;4.724;2023-03-16T05:50:53;5.80;99.90
27540;DHT22;15906;52.046;4.724;2023-03-16T05:53:19;5.80;99.90
27540;DHT22;15906;52.046;4.724;2023-03-16T05:55:51;5.70;99.90
27540;DHT22;15906;52.046;4.724;2023-03-16T05:58:16;5.70;99.90
27540;DHT22;15906;52.046;4.724;2023-03-16T06:00:42;5.70;99.90
27540;DHT22;15906;52.046;4.724;2023-03-16T06:03:08;5.70;99.90
27540;DHT22;15906;52.046;4.724;2023-03-16T06:05:33;5.70;99.90
27540;DHT22;15906;52.046;4.724;2023-03-16T06:07:59;5.70;99.90
27540;DHT22;15906;52.046;4.724;2023-03-16T06:10:25;5.70;99.90
27540;DHT22;15906;52.046;4.724;2023-03-16T06:12:51;5.70;99.90
27540;DHT22;15906;52.046;4.724;2023-03-16T06:15:16;5.80;99.90
27540;DHT22;15906;52.046;4.724;2023-03-16T06:17:42;5.80;99.90
27540;DHT22;15906;52.046;4.724;2023-03-16T06:20:09;5.70;99.90
27540;DHT22;15906;52.046;4.724;2023-03-16T06:22:38;5.70;99.90
27540;DHT22;15906;52.046;4.724;2023-03-16T06:25:05;5.70;99.90
27540;DHT22;15906;52.046;4.724;2023-03-16T06:27:30;5.80;99.90
27540;DHT22;15906;52.046;4.724;2023-03-16T06:29:56;5.80;99.90
27540;DHT22;15906;52.046;4.724;2023-03-16T06:32:22;5.70;99.90
27540;DHT22;15906;52.046;4.724;2023-03-16T06:34:47;5.70;99.90
27540;DHT22;15906;52.046;4.724;2023-03-16T06:37:13;5.80;99.90
27540;DHT22;15906;52.046;4.724;2023-03-16T06:39:39;5.80;99.90
27540;DHT22;15906;52.046;4.724;2023-03-16T06:42:04;5.70;99.90
27540;DHT22;15906;52.046;4.724;2023-03-16T06:44:30;5.80;99.90
27540;DHT22;15906;52.046;4.724;2023-03-16T06:46:56;5.80;99.90
27540;DHT22;15906;52.046;4.724;2023-03-16T06:49:22;5.80;99.90
27540;DHT22;15906;52.046;4.724;2023-03-16T06:51:47;5.80;99.90
27540;DHT22;15906;52.046;4.724;2023-03-16T06:54:13;5.90;99.90
27540;DHT22;15906;52.046;4.724;2023-03-16T06:56:39;5.90;99.90
27540;DHT22;15906;52.046;4.724;2023-03-16T06:59:05;5.90;99.90
27540;DHT22;15906;52.046;4.724;2023-03-16T07:01:30;5.90;99.90
27540;DHT22;15906;52.046;4.724;2023-03-16T07:03:56;5.80;99.90
27540;DHT22;15906;52.046;4.724;2023-03-16T07:06:21;5.90;99.90
27540;DHT22;15906;52.046;4.724;2023-03-16T07:08:47;5.90;99.90
27540;DHT22;15906;52.046;4.724;2023-03-16T07:11:13;5.90;99.90
27540;DHT22;15906;52.046;4.724;2023-03-16T07:13:39;5.90;99.90
27540;DHT22;15906;52.046;4.724;2023-03-16T07:16:05;5.80;99.90
27540;DHT22;15906;52.046;4.724;2023-03-16T07:18:31;5.90;99.90
27540;DHT22;15906;52.046;4.724;2023-03-16T07:20:57;5.90;99.90
27540;DHT22;15906;52.046;4.724;2023-03-16T07:23:23;5.90;99.90
27540;DHT22;15906;52.046;4.724;2023-03-16T07:25:49;6.00;99.90
27540;DHT22;15906;52.046;4.724;2023-03-16T07:28:19;6.00;99.90
27540;DHT22;15906;52.046;4.724;2023-03-16T07:30:45;6.00;99.90
27540;DHT22;15906;52.046;4.724;2023-03-16T07:33:11;6.00;99.90
27540;DHT22;15906;52.046;4.724;2023-03-16T07:35:37;6.00;99.90
27540;DHT22;15906;52.046;4.724;2023-03-16T07:38:02;6.00;99.90
27540;DHT22;15906;52.046;4.724;2023-03-16T07:40:28;6.00;99.90
27540;DHT22;15906;52.046;4.724;2023-03-16T07:42:54;6.10;99.90
27540;DHT22;15906;52.046;4.724;2023-03-16T07:45:19;6.20;99.90
27540;DHT22;15906;52.046;4.724;2023-03-16T07:47:46;6.30;99.90
27540;DHT22;15906;52.046;4.724;2023-03-16T07:50:12;6.30;99.90
27540;DHT22;15906;52.046;4.724;2023-03-16T07:52:40;6.40;99.90
27540;DHT22;15906;52.046;4.724;2023-03-16T07:55:06;6.40;99.90
27540;DHT22;15906;52.046;4.724;2023-03-16T07:57:32;6.40;99.90
27540;DHT22;15906;52.046;4.724;2023-03-16T07:59:57;6.50;99.90
27540;DHT22;15906;52.046;4.724;2023-03-16T08:02:23;6.50;99.90
27540;DHT22;15906;52.046;4.724;2023-03-16T08:04:49;6.50;99.90
27540;DHT22;15906;52.046;4.724;2023-03-16T08:07:16;6.50;99.90
27540;DHT22;15906;52.046;4.724;2023-03-16T08:09:42;6.50;99.90
27540;DHT22;15906;52.046;4.724;2023-03-16T08:12:08;6.50;99.90
27540;DHT22;15906;52.046;4.724;2023-03-16T08:14:34;6.50;99.90
27540;DHT22;15906;52.046;4.724;2023-03-16T08:17:02;6.60;99.90
27540;DHT22;15906;52.046;4.724;2023-03-16T08:19:28;6.60;99.90
27540;DHT22;15906;52.046;4.724;2023-03-16T08:21:53;6.70;99.90
27540;DHT22;15906;52.046;4.724;2023-03-16T08:24:20;6.60;99.90
27540;DHT22;15906;52.046;4.724;2023-03-16T08:26:45;6.70;99.90
27540;DHT22;15906;52.046;4.724;2023-03-16T08:29:12;6.70;99.90
27540;DHT22;15906;52.046;4.724;2023-03-16T08:31:37;6.80;99.90
27540;DHT22;15906;52.046;4.724;2023-03-16T08:34:03;6.80;99.90
27540;DHT22;15906;52.046;4.724;2023-03-16T08:36:29;6.90;99.90
27540;DHT22;15906;52.046;4.724;2023-03-16T08:38:55;6.90;99.90
27540;DHT22;15906;52.046;4.724;2023-03-16T08:41:21;6.90;99.90
27540;DHT22;15906;52.046;4.724;2023-03-16T08:43:47;6.90;99.90
27540;DHT22;15906;52.046;4.724;2023-03-16T08:46:13;6.90;99.90
27540;DHT22;15906;52.046;4.724;2023-03-16T08:48:39;7.00;99.90
27540;DHT22;15906;52.046;4.724;2023-03-16T08:51:06;7.00;99.90
27540;DHT22;15906;52.046;4.724;2023-03-16T08:53:31;7.00;99.90
27540;DHT22;15906;52.046;4.724;2023-03-16T08:56:05;7.10;99.90
27540;DHT22;15906;52.046;4.724;2023-03-16T08:58:32;7.10;99.90
27540;DHT22;15906;52.046;4.724;2023-03-16T09:00:59;7.20;99.90
27540;DHT22;15906;52.046;4.724;2023-03-16T09:03:25;7.30;99.90
27540;DHT22;15906;52.046;4.724;2023-03-16T09:05:52;7.40;99.90
27540;DHT22;15906;52.046;4.724;2023-03-16T09:08:18;7.50;99.90
27540;DHT22;15906;52.046;4.724;2023-03-16T09:10:43;7.60;99.90
27540;DHT22;15906;52.046;4.724;2023-03-16T09:13:10;7.70;99.90
27540;DHT22;15906;52.046;4.724;2023-03-16T09:15:35;7.70;99.90
27540;DHT22;15906;52.046;4.724;2023-03-16T09:18:02;7.80;99.90
27540;DHT22;15906;52.046;4.724;2023-03-16T09:20:28;7.80;99.90
27540;DHT22;15906;52.046;4.724;2023-03-16T09:22:55;7.90;99.90
27540;DHT22;15906;52.046;4.724;2023-03-16T09:25:21;8.00;99.90
27540;DHT22;15906;52.046;4.724;2023-03-16T09:27:47;8.10;99.90
27540;DHT22;15906;52.046;4.724;2023-03-16T09:30:13;8.20;99.90
27540;DHT22;15906;52.046;4.724;2023-03-16T09:32:39;8.20;99.90
27540;DHT22;15906;52.046;4.724;2023-03-16T09:35:05;8.40;99.90
27540;DHT22;15906;52.046;4.724;2023-03-16T09:37:32;8.60;99.90
27540;DHT22;15906;52.046;4.724;2023-03-16T09:39:57;8.80;99.90
27540;DHT22;15906;52.046;4.724;2023-03-16T09:42:39;9.00;99.90
27540;DHT22;15906;52.046;4.724;2023-03-16T09:45:25;9.30;99.90
27540;DHT22;15906;52.046;4.724;2023-03-16T09:47:57;9.40;99.90
27540;DHT22;15906;52.046;4.724;2023-03-16T09:50:32;9.60;99.90
27540;DHT22;15906;52.046;4.724;2023-03-16T09:53:16;9.60;99.90
27540;DHT22;15906;52.046;4.724;2023-03-16T09:55:45;9.70;99.90
27540;DHT22;15906;52.046;4.724;2023-03-16T09:58:16;9.80;99.90
27540;DHT22;15906;52.046;4.724;2023-03-16T10:01:08;9.80;99.90
27540;DHT22;15906;52.046;4.724;2023-03-16T10:06:14;9.90;99.90
27540;DHT22;15906;52.046;4.724;2023-03-16T10:11:38;10.00;99.90
27540;DHT22;15906;52.046;4.724;2023-03-16T10:14:25;10.10;99.90
27540;DHT22;15906;52.046;4.724;2023-03-16T10:17:02;10.20;99.90
27540;DHT22;15906;52.046;4.724;2023-03-16T10:20:09;10.30;99.90
27540;DHT22;15906;52.046;4.724;2023-03-16T10:22:42;10.30;99.90
27540;DHT22;15906;52.046;4.724;2023-03-16T10:25:38;10.30;99.90
27540;DHT22;15906;52.046;4.724;2023-03-16T10:28:13;10.30;99.90
27540;DHT22;15906;52.046;4.724;2023-03-16T10:30:39;10.40;99.90
27540;DHT22;15906;52.046;4.724;2023-03-16T10:33:19;10.40;99.90
27540;DHT22;15906;52.046;4.724;2023-03-16T10:38:28;10.40;99.90
27540;DHT22;15906;52.046;4.724;2023-03-16T10:40:55;10.40;99.90
27540;DHT22;15906;52.046;4.724;2023-03-16T10:43:22;10.30;99.90
27540;DHT22;15906;52.046;4.724;2023-03-16T10:45:48;10.30;99.90
27540;DHT22;15906;52.046;4.724;2023-03-16T10:48:17;10.40;99.90
27540;DHT22;15906;52.046;4.724;2023-03-16T10:50:48;10.60;99.90
27540;DHT22;15906;52.046;4.724;2023-03-16T10:53:22;10.60;99.90
27540;DHT22;15906;52.046;4.724;2023-03-16T10:55:48;10.70;99.90
27540;DHT22;15906;52.046;4.724;2023-03-16T10:58:32;10.80;99.90
27540;DHT22;15906;52.046;4.724;2023-03-16T11:00:58;10.80;99.90
27540;DHT22;15906;52.046;4.724;2023-03-16T11:03:29;10.80;99.90
27540;DHT22;15906;52.046;4.724;2023-03-16T11:06:03;10.80;99.90
27540;DHT22;15906;52.046;4.724;2023-03-16T11:08:36;10.80;99.90
27540;DHT22;15906;52.046;4.724;2023-03-16T11:11:23;10.80;99.90
27540;DHT22;15906;52.046;4.724;2023-03-16T11:13:56;10.90;99.90
27540;DHT22;15906;52.046;4.724;2023-03-16T11:16:42;10.80;99.90
27540;DHT22;15906;52.046;4.724;2023-03-16T11:21:51;10.90;99.90
27540;DHT22;15906;52.046;4.724;2023-03-16T11:27:32;10.90;99.90
27540;DHT22;15906;52.046;4.724;2023-03-16T11:30:35;10.70;99.90
27540;DHT22;15906;52.046;4.724;2023-03-16T11:33:08;10.70;99.90
27540;DHT22;15906;52.046;4.724;2023-03-16T11:35:50;10.80;99.90
27540;DHT22;15906;52.046;4.724;2023-03-16T11:38:24;10.80;99.90
27540;DHT22;15906;52.046;4.724;2023-03-16T11:40:53;10.90;99.90
27540;DHT22;15906;52.046;4.724;2023-03-16T11:46:13;11.10;99.90
27540;DHT22;15906;52.046;4.724;2023-03-16T11:48:59;11.20;99.90
27540;DHT22;15906;52.046;4.724;2023-03-16T11:52:08;11.40;99.90
27540;DHT22;15906;52.046;4.724;2023-03-16T12:00:16;11.60;99.90
27540;DHT22;15906;52.046;4.724;2023-03-16T12:02:57;11.70;99.90
27540;DHT22;15906;52.046;4.724;2023-03-16T12:16:20;12.10;99.90
27540;DHT22;15906;52.046;4.724;2023-03-16T12:19:04;12.20;99.90
27540;DHT22;15906;52.046;4.724;2023-03-16T12:21:34;12.10;99.90
27540;DHT22;15906;52.046;4.724;2023-03-16T12:24:04;12.00;99.90
27540;DHT22;15906;52.046;4.724;2023-03-16T12:26:35;12.10;99.90
27540;DHT22;15906;52.046;4.724;2023-03-16T12:31:52;12.30;99.90
27540;DHT22;15906;52.046;4.724;2023-03-16T12:35:02;12.50;99.90
27540;DHT22;15906;52.046;4.724;2023-03-16T12:40:16;12.80;99.90
27540;DHT22;15906;52.046;4.724;2023-03-16T12:43:08;12.80;99.90
27540;DHT22;15906;52.046;4.724;2023-03-16T12:45:42;12.90;99.90
27540;DHT22;15906;52.046;4.724;2023-03-16T12:48:31;13.00;99.90
27540;DHT22;15906;52.046;4.724;2023-03-16T12:51:00;12.90;99.90
27540;DHT22;15906;52.046;4.724;2023-03-16T12:56:17;12.90;99.90
27540;DHT22;15906;52.046;4.724;2023-03-16T12:58:48;13.00;99.90
27540;DHT22;15906;52.046;4.724;2023-03-16T13:01:16;13.20;99.90
27540;DHT22;15906;52.046;4.724;2023-03-16T13:03:45;13.20;99.90
27540;DHT22;15906;52.046;4.724;2023-03-16T13:06:40;13.50;99.90
27540;DHT22;15906;52.046;4.724;2023-03-16T13:09:06;13.50;99.40
27540;DHT22;15906;52.046;4.724;2023-03-16T13:11:45;13.50;99.70
27540;DHT22;15906;52.046;4.724;2023-03-16T13:14:38;13.60;99.40
27540;DHT22;15906;52.046;4.724;2023-03-16T13:19:43;13.60;99.80
27540;DHT22;15906;52.046;4.724;2023-03-16T13:22:27;13.70;99.70
27540;DHT22;15906;52.046;4.724;2023-03-16T13:25:44;13.80;98.20
27540;DHT22;15906;52.046;4.724;2023-03-16T13:28:07;13.70;98.20
27540;DHT22;15906;52.046;4.724;2023-03-16T13:30:36;13.80;98.00
27540;DHT22;15906;52.046;4.724;2023-03-16T13:33:34;13.90;97.80
27540;DHT22;15906;52.046;4.724;2023-03-16T13:36:05;13.80;98.10
27540;DHT22;15906;52.046;4.724;2023-03-16T13:38:31;14.00;97.80
27540;DHT22;15906;52.046;4.724;2023-03-16T13:41:02;13.90;97.70
27540;DHT22;15906;52.046;4.724;2023-03-16T13:43:30;13.90;97.50
27540;DHT22;15906;52.046;4.724;2023-03-16T13:46:15;13.90;97.60
27540;DHT22;15906;52.046;4.724;2023-03-16T13:48:42;13.90;97.20
27540;DHT22;15906;52.046;4.724;2023-03-16T13:51:15;14.00;97.30
27540;DHT22;15906;52.046;4.724;2023-03-16T13:53:42;14.00;97.70
27540;DHT22;15906;52.046;4.724;2023-03-16T13:56:16;14.00;97.70
27540;DHT22;15906;52.046;4.724;2023-03-16T13:58:45;14.00;97.30
27540;DHT22;15906;52.046;4.724;2023-03-16T14:01:27;14.10;97.30
27540;DHT22;15906;52.046;4.724;2023-03-16T14:03:56;14.10;97.40
27540;DHT22;15906;52.046;4.724;2023-03-16T14:06:27;14.20;98.20
27540;DHT22;15906;52.046;4.724;2023-03-16T14:08:58;14.20;97.50
27540;DHT22;15906;52.046;4.724;2023-03-16T14:11:26;14.30;97.30
27540;DHT22;15906;52.046;4.724;2023-03-16T14:13:54;14.20;96.90
27540;DHT22;15906;52.046;4.724;2023-03-16T14:16:25;14.20;97.20
27540;DHT22;15906;52.046;4.724;2023-03-16T14:19:02;14.20;97.10
27540;DHT22;15906;52.046;4.724;2023-03-16T14:21:30;14.30;97.60
27540;DHT22;15906;52.046;4.724;2023-03-16T14:24:03;14.40;96.50
27540;DHT22;15906;52.046;4.724;2023-03-16T14:26:44;14.30;95.30
27540;DHT22;15906;52.046;4.724;2023-03-16T14:29:19;14.20;96.70
27540;DHT22;15906;52.046;4.724;2023-03-16T14:31:48;14.30;96.80
27540;DHT22;15906;52.046;4.724;2023-03-16T14:37:07;14.20;96.00
27540;DHT22;15906;52.046;4.724;2023-03-16T14:39:33;14.10;96.30
27540;DHT22;15906;52.046;4.724;2023-03-16T14:42:02;14.00;96.60
27540;DHT22;15906;52.046;4.724;2023-03-16T14:44:31;14.00;95.90
27540;DHT22;15906;52.046;4.724;2023-03-16T14:46:58;13.90;96.30
27540;DHT22;15906;52.046;4.724;2023-03-16T14:49:28;14.00;96.00
27540;DHT22;15906;52.046;4.724;2023-03-16T14:52:06;14.00;96.50
27540;DHT22;15906;52.046;4.724;2023-03-16T14:54:32;14.10;96.20
27540;DHT22;15906;52.046;4.724;2023-03-16T14:57:01;14.10;95.80
27540;DHT22;15906;52.046;4.724;2023-03-16T14:59:27;14.10;96.30
27540;DHT22;15906;52.046;4.724;2023-03-16T15:01:53;14.10;95.80
27540;DHT22;15906;52.046;4.724;2023-03-16T15:04:33;14.10;96.20
27540;DHT22;15906;52.046;4.724;2023-03-16T15:07:00;14.00;95.90
27540;DHT22;15906;52.046;4.724;2023-03-16T15:09:39;14.00;96.30
27540;DHT22;15906;52.046;4.724;2023-03-16T15:12:16;14.00;96.30
27540;DHT22;15906;52.046;4.724;2023-03-16T15:14:42;14.00;95.80
27540;DHT22;15906;52.046;4.724;2023-03-16T15:17:27;14.00;95.50
27540;DHT22;15906;52.046;4.724;2023-03-16T15:19:52;14.00;96.30
27540;DHT22;15906;52.046;4.724;2023-03-16T15:22:26;14.10;96.40
27540;DHT22;15906;52.046;4.724;2023-03-16T15:24:53;14.10;95.80
27540;DHT22;15906;52.046;4.724;2023-03-16T15:27:21;14.10;95.50
27540;DHT22;15906;52.046;4.724;2023-03-16T15:29:48;14.10;96.30
27540;DHT22;15906;52.046;4.724;2023-03-16T15:32:13;14.10;96.10
27540;DHT22;15906;52.046;4.724;2023-03-16T15:34:43;14.10;95.90
27540;DHT22;15906;52.046;4.724;2023-03-16T15:37:15;14.10;95.00
27540;DHT22;15906;52.046;4.724;2023-03-16T15:39:42;14.20;95.30
27540;DHT22;15906;52.046;4.724;2023-03-16T15:42:16;14.10;95.90
27540;DHT22;15906;52.046;4.724;2023-03-16T15:44:43;14.00;95.30
27540;DHT22;15906;52.046;4.724;2023-03-16T15:47:09;14.00;95.70
27540;DHT22;15906;52.046;4.724;2023-03-16T15:49:36;14.00;95.00
27540;DHT22;15906;52.046;4.724;2023-03-16T15:52:03;13.90;95.80
27540;DHT22;15906;52.046;4.724;2023-03-16T15:54:29;14.00;95.00
27540;DHT22;15906;52.046;4.724;2023-03-16T15:56:55;13.90;94.90
27540;DHT22;15906;52.046;4.724;2023-03-16T15:59:22;13.80;96.10
27540;DHT22;15906;52.046;4.724;2023-03-16T16:01:48;13.70;96.40
27540;DHT22;15906;52.046;4.724;2023-03-16T16:04:16;13.60;96.40
27540;DHT22;15906;52.046;4.724;2023-03-16T16:06:44;13.70;95.80
27540;DHT22;15906;52.046;4.724;2023-03-16T16:09:11;13.50;96.30
27540;DHT22;15906;52.046;4.724;2023-03-16T16:11:37;13.50;96.50
27540;DHT22;15906;52.046;4.724;2023-03-16T16:14:03;13.30;96.30
27540;DHT22;15906;52.046;4.724;2023-03-16T16:16:30;13.30;97.00
27540;DHT22;15906;52.046;4.724;2023-03-16T16:18:57;13.20;97.10
27540;DHT22;15906;52.046;4.724;2023-03-16T16:21:27;13.30;96.80
27540;DHT22;15906;52.046;4.724;2023-03-16T16:23:55;13.30;96.80
27540;DHT22;15906;52.046;4.724;2023-03-16T16:26:35;13.30;96.70
27540;DHT22;15906;52.046;4.724;2023-03-16T16:29:15;13.30;96.50
27540;DHT22;15906;52.046;4.724;2023-03-16T16:31:42;13.30;96.00
27540;DHT22;15906;52.046;4.724;2023-03-16T16:34:12;13.30;96.40
27540;DHT22;15906;52.046;4.724;2023-03-16T16:36:38;13.20;96.60
27540;DHT22;15906;52.046;4.724;2023-03-16T16:39:03;13.20;96.20
27540;DHT22;15906;52.046;4.724;2023-03-16T16:41:31;13.10;96.60
27540;DHT22;15906;52.046;4.724;2023-03-16T16:43:58;13.10;96.80
27540;DHT22;15906;52.046;4.724;2023-03-16T16:46:32;13.10;96.60
27540;DHT22;15906;52.046;4.724;2023-03-16T16:49:04;12.90;96.70
27540;DHT22;15906;52.046;4.724;2023-03-16T16:51:30;13.00;96.60
27540;DHT22;15906;52.046;4.724;2023-03-16T16:53:59;12.80;96.80
27540;DHT22;15906;52.046;4.724;2023-03-16T16:56:29;12.80;97.40
27540;DHT22;15906;52.046;4.724;2023-03-16T16:58:56;12.80;97.10